createdAt,value
2023-02-14T00:04:52.884Z,1.00
2023-02-14T00:09:57.567Z,99.90
2023-02-14T00:15:18.143Z,99.90
2023-02-14T00:20:21.747Z,99.90
2023-02-14T00:25:26.373Z,1.00
2023-02-14T00:30:30.060Z,99.90
2023-02-14T00:35:33.418Z,1.00
2023-02-14T00:40:38.072Z,99.90
2023-02-14T00:45:41.345Z,1.00
2023-02-14T00:50:46.280Z,99.90
2023-02-14T00:55:50.904Z,99.90
2023-02-14T01:00:54.435Z,99.90
2023-02-14T01:05:57.789Z,1.00
2023-02-14T01:11:10.005Z,99.90
2023-02-14T01:16:19.937Z,1.00
2023-02-14T01:21:26.675Z,1.00
2023-02-14T01:26:34.465Z,99.90
2023-02-14T01:31:38.880Z,1.00
2023-02-14T01:36:42.331Z,1.00
2023-02-14T01:41:48.605Z,26.70
2023-02-14T01:46:52.822Z,1.00
2023-02-14T01:52:03.687Z,91.60
2023-02-14T01:57:13.471Z,99.90
2023-02-14T02:02:23.533Z,1.00
2023-02-14T02:07:28.571Z,1.00
2023-02-14T02:12:38.171Z,99.90
2023-02-14T02:17:50.031Z,99.90
2023-02-14T02:23:26.819Z,99.90
2023-02-14T02:28:58.284Z,99.90
2023-02-14T02:34:25.505Z,99.90
2023-02-14T02:39:43.780Z,99.90
2023-02-14T02:44:57.035Z,99.90
2023-02-14T02:50:24.376Z,99.90
2023-02-14T02:55:55.950Z,99.90
2023-02-14T03:01:04.119Z,99.90
2023-02-14T03:06:07.991Z,99.90
2023-02-14T03:11:14.883Z,99.90
2023-02-14T03:16:38.309Z,99.90
2023-02-14T03:21:56.353Z,99.90
2023-02-14T03:27:07.392Z,99.90
2023-02-14T03:32:20.043Z,99.90
2023-02-14T03:37:29.536Z,99.90
2023-02-14T03:42:39.093Z,99.90
2023-02-14T03:47:44.278Z,99.90
2023-02-14T03:52:50.166Z,99.90
2023-02-14T03:58:00.663Z,99.90
2023-02-14T04:03:11.957Z,99.90
2023-02-14T04:08:22.917Z,99.90
2023-02-14T04:13:27.842Z,99.90
2023-02-14T04:18:48.465Z,99.90
2023-02-14T04:23:51.799Z,99.90
2023-02-14T04:28:56.670Z,99.90
2023-02-14T04:33:59.967Z,99.90
2023-02-14T04:39:03.372Z,99.90
2023-02-14T04:44:08.168Z,99.90
2023-02-14T04:49:11.545Z,99.90
2023-02-14T04:54:14.929Z,99.90
2023-02-14T04:59:19.831Z,99.90
2023-02-14T05:04:23.282Z,99.90
2023-02-14T05:09:26.626Z,99.90
2023-02-14T05:14:31.416Z,99.90
2023-02-14T05:19:34.707Z,99.90
2023-02-14T05:24:38.190Z,99.90
2023-02-14T05:29:42.918Z,99.90
2023-02-14T05:34:46.313Z,99.90
2023-02-14T05:39:49.592Z,99.90
2023-02-14T05:44:54.513Z,99.90
2023-02-14T05:49:57.837Z,99.90
2023-02-14T05:55:01.155Z,99.90
2023-02-14T06:00:06.969Z,99.90
2023-02-14T06:05:17.889Z,99.90
2023-02-14T06:10:23.860Z,99.90
2023-02-14T06:15:29.032Z,99.90
2023-02-14T06:20:32.870Z,99.90
2023-02-14T06:25:36.310Z,99.90
2023-02-14T06:30:41.188Z,99.90
2023-02-14T06:35:44.596Z,99.90
2023-02-14T06:40:47.923Z,99.90
2023-02-14T06:45:52.700Z,99.90
2023-02-14T06:50:56.044Z,99.90
2023-02-14T06:55:59.372Z,99.90
2023-02-14T07:01:04.545Z,99.90
2023-02-14T07:06:07.982Z,99.90
2023-02-14T07:11:11.411Z,99.90
2023-02-14T07:16:16.248Z,99.90
2023-02-14T07:21:19.603Z,99.90
2023-02-14T07:26:22.964Z,99.90
2023-02-14T07:31:27.885Z,99.90
2023-02-14T07:36:32.223Z,99.90
2023-02-14T07:41:35.639Z,71.90
2023-02-14T07:46:44.044Z,99.90
2023-02-14T07:51:47.332Z,99.90
2023-02-14T07:56:51.174Z,99.90
2023-02-14T08:01:55.977Z,99.90
2023-02-14T08:06:59.476Z,99.90
2023-02-14T08:12:20.304Z,99.90
2023-02-14T08:17:24.976Z,99.90
2023-02-14T08:22:28.263Z,99.90
2023-02-14T08:27:31.569Z,1.00
2023-02-14T08:32:37.436Z,1.00
2023-02-14T08:37:40.846Z,1.00
2023-02-14T08:42:44.126Z,1.00
2023-02-14T08:47:48.854Z,1.00
2023-02-14T08:52:52.120Z,1.00
2023-02-14T08:57:56.762Z,1.00
2023-02-14T09:03:01.726Z,1.00
2023-02-14T09:08:05.421Z,18.50
2023-02-14T09:13:08.729Z,99.90
2023-02-14T09:18:13.569Z,3.90
2023-02-14T09:23:16.999Z,1.00
2023-02-14T09:28:20.416Z,1.00
2023-02-14T09:33:25.515Z,80.80
2023-02-14T09:38:28.804Z,99.90
2023-02-14T09:43:38.166Z,1.00
2023-02-14T09:48:47.220Z,3.00
2023-02-14T09:53:54.152Z,1.00
2023-02-14T09:59:05.007Z,1.00
2023-02-14T10:04:25.565Z,1.00
2023-02-14T10:09:55.616Z,99.90
2023-02-14T10:15:02.657Z,99.90
2023-02-14T10:20:19.465Z,99.90
2023-02-14T10:25:25.901Z,99.90
2023-02-14T10:30:38.155Z,99.90
2023-02-14T10:35:48.462Z,99.90
2023-02-14T10:41:15.221Z,99.90
2023-02-14T10:46:31.376Z,99.90
2023-02-14T10:51:42.540Z,87.40
2023-02-14T10:56:51.587Z,99.90
2023-02-14T11:01:56.253Z,1.00
2023-02-14T11:07:00.915Z,1.00
2023-02-14T11:12:04.496Z,1.00
2023-02-14T11:17:32.857Z,1.00
2023-02-14T11:22:37.583Z,99.90
2023-02-14T11:27:49.856Z,99.90
2023-02-14T11:32:56.147Z,99.90
2023-02-14T11:38:01.911Z,99.90
2023-02-14T11:43:20.936Z,1.00
2023-02-14T11:48:37.239Z,1.00
2023-02-14T11:53:49.693Z,1.00
2023-02-14T11:58:57.646Z,1.00
2023-02-14T12:04:04.380Z,1.00
2023-02-14T12:09:27.640Z,99.90
2023-02-14T12:14:32.831Z,1.00
2023-02-14T12:19:43.123Z,1.00
2023-02-14T12:24:54.286Z,25.80
2023-02-14T12:30:04.157Z,99.90
2023-02-14T12:35:15.862Z,77.40
2023-02-14T12:40:25.583Z,1.00
2023-02-14T12:45:47.078Z,99.90
2023-02-14T12:50:55.451Z,1.00
2023-02-14T12:56:12.764Z,1.00
2023-02-14T13:01:39.180Z,1.00
2023-02-14T13:06:49.157Z,1.00
2023-02-14T13:12:03.338Z,99.90
2023-02-14T13:17:18.647Z,1.00
2023-02-14T13:22:25.175Z,1.00
2023-02-14T13:27:33.441Z,1.00
2023-02-14T13:32:40.932Z,1.00
2023-02-14T13:37:54.368Z,60.00
2023-02-14T13:43:00.430Z,99.90
2023-02-14T13:48:06.606Z,83.40
2023-02-14T13:53:13.382Z,60.40
2023-02-14T13:58:21.821Z,1.00
2023-02-14T14:04:01.936Z,99.90
2023-02-14T14:09:05.534Z,63.20
2023-02-14T14:14:36.599Z,99.90
2023-02-14T14:19:42.086Z,1.00
2023-02-14T14:24:57.341Z,90.10
2023-02-14T14:30:03.504Z,1.00
2023-02-14T14:35:22.625Z,1.00
2023-02-14T14:40:28.857Z,1.00
2023-02-14T14:45:33.958Z,1.00
2023-02-14T14:50:39.799Z,1.00
2023-02-14T14:55:51.974Z,1.00
2023-02-14T15:00:56.830Z,1.00
2023-02-14T15:06:17.319Z,1.00
2023-02-14T15:11:42.221Z,1.00
2023-02-14T15:16:49.932Z,1.00
2023-02-14T15:21:53.466Z,1.00
2023-02-14T15:26:58.279Z,1.00
2023-02-14T15:32:03.752Z,1.00
2023-02-14T15:37:08.418Z,28.90
2023-02-14T15:42:22.894Z,99.90
2023-02-14T15:47:27.580Z,99.90
2023-02-14T15:52:30.922Z,99.90
2023-02-14T15:57:35.320Z,99.90
2023-02-14T16:02:42.164Z,99.90
2023-02-14T16:07:57.962Z,99.90
2023-02-14T16:13:03.739Z,99.90
2023-02-14T16:18:19.617Z,99.90
2023-02-14T16:23:26.123Z,99.90
2023-02-14T16:28:31.102Z,99.90
2023-02-14T16:33:37.256Z,99.90
2023-02-14T16:38:44.404Z,99.90
2023-02-14T16:43:48.359Z,99.90
2023-02-14T16:48:53.561Z,99.90
2023-02-14T16:53:58.987Z,99.90
2023-02-14T16:59:02.250Z,99.90
2023-02-14T17:04:06.921Z,99.90
2023-02-14T17:09:13.336Z,99.90
2023-02-14T17:14:19.999Z,99.90
2023-02-14T17:19:24.758Z,99.90
2023-02-14T17:24:28.222Z,99.90
2023-02-14T17:29:31.848Z,99.90
2023-02-14T17:34:36.651Z,99.90
2023-02-14T17:39:40.111Z,99.90
2023-02-14T17:44:43.449Z,99.90
2023-02-14T17:49:48.514Z,99.90
2023-02-14T17:54:52.175Z,99.90
2023-02-14T17:59:55.599Z,99.90
2023-02-14T18:05:00.458Z,99.90
2023-02-14T18:10:03.783Z,99.90
2023-02-14T18:15:07.856Z,99.90
2023-02-14T18:20:13.822Z,99.90
2023-02-14T18:25:17.276Z,99.90
2023-02-14T18:30:20.815Z,99.90
2023-02-14T18:35:25.538Z,99.90
2023-02-14T18:40:29.184Z,99.90
2023-02-14T18:45:36.199Z,99.90
2023-02-14T18:50:40.956Z,99.90
2023-02-14T18:55:44.213Z,99.90
2023-02-14T19:00:47.470Z,99.90
2023-02-14T19:05:53.299Z,99.90
2023-02-14T19:10:56.549Z,99.90
2023-02-14T19:16:00.631Z,99.90
2023-02-14T19:21:12.352Z,99.90
2023-02-14T19:26:17.632Z,99.90
2023-02-14T19:31:20.947Z,99.90
2023-02-14T19:36:25.806Z,99.90
2023-02-14T19:41:31.717Z,99.90
2023-02-14T19:46:35.621Z,99.90
2023-02-14T19:51:40.259Z,99.90
2023-02-14T19:56:45.363Z,99.90
2023-02-14T20:01:50.991Z,99.90
2023-02-14T20:06:56.691Z,99.90
2023-02-14T20:12:01.514Z,99.90
2023-02-14T20:17:07.672Z,99.90
2023-02-14T20:22:12.666Z,99.90
2023-02-14T20:27:16.353Z,99.90
2023-02-14T20:32:20.172Z,99.90
2023-02-14T20:37:25.112Z,99.90
2023-02-14T20:42:28.698Z,99.90
2023-02-14T20:47:32.041Z,99.90
2023-02-14T20:52:38.313Z,99.90
2023-02-14T20:57:41.738Z,99.90
2023-02-14T21:02:45.540Z,99.90
2023-02-14T21:07:50.400Z,99.90
2023-02-14T21:12:54.343Z,99.90
2023-02-14T21:17:58.483Z,99.90
2023-02-14T21:23:03.576Z,99.90
2023-02-14T21:28:06.896Z,99.90
2023-02-14T21:33:10.408Z,99.90
2023-02-14T21:38:15.185Z,99.90
2023-02-14T21:43:18.483Z,99.90
2023-02-14T21:48:39.412Z,99.90
2023-02-14T21:53:44.300Z,99.90
2023-02-14T21:58:48.740Z,99.90
2023-02-14T22:03:52.746Z,99.90
2023-02-14T22:09:01.201Z,99.90
2023-02-14T22:14:04.654Z,99.90
2023-02-14T22:19:09.151Z,99.90
2023-02-14T22:24:13.956Z,99.90
2023-02-14T22:29:17.453Z,99.90
2023-02-14T22:34:20.717Z,99.90
2023-02-14T22:39:25.548Z,99.90
2023-02-14T22:44:29.093Z,99.90
2023-02-14T22:49:32.543Z,99.90
2023-02-14T22:54:37.210Z,99.90
2023-02-14T22:59:40.734Z,99.90
2023-02-14T23:04:44.032Z,99.90
2023-02-14T23:09:50.578Z,99.90
2023-02-14T23:15:11.241Z,99.90
2023-02-14T23:20:31.932Z,99.90
2023-02-14T23:25:36.556Z,99.90
2023-02-14T23:30:39.885Z,99.90
2023-02-14T23:35:43.214Z,99.90
2023-02-14T23:41:04.351Z,99.90
2023-02-14T23:46:07.686Z,99.90
2023-02-14T23:51:10.943Z,99.90
2023-02-14T23:56:15.650Z,99.90
